Time;durP1;ratioP1;P1;durP2;ratioP2;P2;SDS_P1;SDS_P2;PMS_P1;PMS_P2;Temp;Humidity;BMP_temperature;BMP_pressure;BME280_temperature;BME280_humidity;BME280_pressure;Samples;Min_cycle;Max_cycle;Signal;HPM_P1;HPM_P2
2023/07/30 00:01:41;;;;;;;13.52;10.25;;;614.70;2432.00;;;;;;5077605;28;20035;-75
2023/07/30 00:04:07;;;;;;;18.50;10.63;;;614.70;2432.00;;;;;;5090068;28;20031;-72
2023/07/30 00:06:32;;;;;;;14.75;10.32;;;614.70;2432.00;;;;;;5081574;28;20051;-73
2023/07/30 00:08:58;;;;;;;17.60;11.57;;;614.60;2432.00;;;;;;5076512;28;20039;-74
2023/07/30 00:11:24;;;;;;;17.77;11.98;;;614.80;2432.00;;;;;;5087949;28;20036;-73
2023/07/30 00:13:49;;;;;;;15.50;9.98;;;614.90;2432.00;;;;;;5082861;28;20085;-73
2023/07/30 00:16:15;;;;;;;19.52;12.15;;;615.00;2432.00;;;;;;5080106;28;20480;-73
2023/07/30 00:18:40;;;;;;;17.77;11.75;;;615.10;2432.00;;;;;;5075620;28;20420;-74
2023/07/30 00:21:06;;;;;;;15.55;11.60;;;615.00;2432.00;;;;;;5085384;28;20039;-73
2023/07/30 00:23:32;;;;;;;17.17;12.10;;;614.80;2432.00;;;;;;5081655;28;20032;-73
2023/07/30 00:25:57;;;;;;;16.08;12.13;;;614.80;2432.00;;;;;;5082448;28;20398;-72
2023/07/30 00:28:23;;;;;;;15.18;11.27;;;615.00;2432.00;;;;;;5085058;28;20121;-73
2023/07/30 00:30:49;;;;;;;15.30;12.10;;;615.10;2432.00;;;;;;5078240;28;20039;-73
2023/07/30 00:33:14;;;;;;;15.95;12.52;;;615.00;2432.00;;;;;;5081973;28;20028;-73
2023/07/30 00:35:40;;;;;;;21.58;14.63;;;615.10;2432.00;;;;;;5081189;28;20466;-73
2023/07/30 00:38:06;;;;;;;21.88;14.77;;;615.10;2432.00;;;;;;5078729;28;20041;-73
2023/07/30 00:40:31;;;;;;;21.08;14.45;;;615.10;2432.00;;;;;;5086521;28;20036;-72
2023/07/30 00:42:57;;;;;;;19.05;13.52;;;615.20;2432.00;;;;;;5086639;28;20500;-73
2023/07/30 00:45:23;;;;;;;20.45;14.45;;;615.00;2432.00;;;;;;5079451;28;20063;-72
2023/07/30 00:47:48;;;;;;;21.23;14.85;;;615.00;2432.00;;;;;;5074490;28;20046;-73
2023/07/30 00:50:16;;;;;;;22.02;14.45;;;615.00;2432.00;;;;;;5085277;28;20044;-76
2023/07/30 00:52:43;;;;;;;22.58;16.58;;;615.10;2432.00;;;;;;5082893;28;20042;-72
2023/07/30 00:55:09;;;;;;;23.08;15.35;;;615.10;2432.00;;;;;;5083640;28;20494;-73
2023/07/30 00:57:36;;;;;;;23.83;15.50;;;615.10;2432.00;;;;;;5078428;28;20024;-72
2023/07/30 01:00:05;;;;;;;24.17;14.82;;;615.10;2432.00;;;;;;5082724;28;20020;-72
2023/07/30 01:02:32;;;;;;;23.45;15.23;;;615.00;2432.00;;;;;;5078938;28;20482;-73
2023/07/30 01:04:59;;;;;;;27.60;16.67;;;614.90;2432.00;;;;;;5074660;28;21136;-72
2023/07/30 01:07:26;;;;;;;20.92;15.77;;;614.80;2432.00;;;;;;5082888;28;20103;-73
2023/07/30 01:09:52;;;;;;;20.80;15.98;;;614.70;2432.00;;;;;;5078992;28;20079;-73
2023/07/30 01:12:18;;;;;;;20.13;16.40;;;;;;;;;;5083935;28;20024;-74
2023/07/30 01:14:46;;;;;;;22.85;15.57;;;614.40;2432.00;;;;;;5085905;28;20032;-73
2023/07/30 01:17:12;;;;;;;21.05;14.77;;;589.70;2432.00;;;;;;5076752;28;20032;-73
2023/07/30 01:19:38;;;;;;;22.98;15.30;;;614.40;2432.00;;;;;;5076648;28;20016;-72
2023/07/30 01:22:03;;;;;;;20.17;15.52;;;589.70;2432.00;;;;;;5082856;28;20036;-75
2023/07/30 01:24:29;;;;;;;19.83;15.52;;;589.60;2432.00;;;;;;5077600;28;20035;-73
2023/07/30 01:27:01;;;;;;;19.70;15.80;;;589.50;2432.00;;;;;;5074048;28;20036;-77
2023/07/30 01:29:50;;;;;;;18.90;15.68;;;589.50;2432.00;;;;;;5075963;28;20040;-73
2023/07/30 01:32:19;;;;;;;21.55;16.60;;;589.40;2432.00;;;;;;5077064;28;20028;-73
2023/07/30 01:34:46;;;;;;;20.77;15.38;;;589.50;2432.00;;;;;;5078492;28;20509;-73
2023/07/30 01:37:14;;;;;;;23.95;15.30;;;589.50;2432.00;;;;;;5080519;28;20044;-73
2023/07/30 01:39:42;;;;;;;20.85;15.45;;;589.50;2432.00;;;;;;5083871;28;20456;-73
2023/07/30 01:42:07;;;;;;;24.10;16.33;;;589.40;2432.00;;;;;;5078460;28;20052;-73
2023/07/30 01:44:33;;;;;;;20.50;16.35;;;589.50;2432.00;;;;;;5082595;28;20114;-72
2023/07/30 01:46:59;;;;;;;20.55;15.63;;;589.50;2432.00;;;;;;5073155;28;20028;-73
2023/07/30 01:49:24;;;;;;;20.02;15.82;;;589.60;2432.00;;;;;;5073240;28;20039;-74
2023/07/30 01:51:50;;;;;;;22.75;16.27;;;589.70;2432.00;;;;;;5072882;28;20025;-75
2023/07/30 01:54:16;;;;;;;21.27;17.33;;;614.40;2432.00;;;;;;5073230;28;20033;-74
2023/07/30 01:56:41;;;;;;;21.83;14.98;;;614.50;2432.00;;;;;;5072997;28;20095;-75
2023/07/30 01:59:07;;;;;;;21.48;16.08;;;614.40;2432.00;;;;;;5072715;28;20474;-78
2023/07/30 02:01:33;;;;;;;20.40;15.60;;;614.40;2432.00;;;;;;5072900;28;20017;-74
2023/07/30 02:03:58;;;;;;;20.27;14.77;;;614.40;2432.00;;;;;;5072997;28;20021;-74
2023/07/30 02:06:24;;;;;;;19.67;14.75;;;589.60;2432.00;;;;;;5072841;28;20090;-74
2023/07/30 02:08:50;;;;;;;20.52;14.55;;;589.60;2432.00;;;;;;5072958;28;20440;-73
2023/07/30 02:11:15;;;;;;;19.33;15.02;;;589.50;2432.00;;;;;;5075043;28;20119;-73
2023/07/30 02:13:42;;;;;;;19.30;14.55;;;589.50;2432.00;;;;;;5071686;28;20025;-73
2023/07/30 02:16:08;;;;;;;25.42;16.40;;;589.50;2432.00;;;;;;5071890;28;20032;-78
2023/07/30 02:18:33;;;;;;;20.48;15.02;;;589.30;2432.00;;;;;;5071823;28;20031;-76
2023/07/30 02:20:59;;;;;;;22.38;16.40;;;589.20;2432.00;;;;;;5071764;28;20040;-73
2023/07/30 02:23:25;;;;;;;23.08;15.68;;;589.20;2432.00;;;;;;5072211;28;20024;-73
2023/07/30 02:25:51;;;;;;;20.67;15.18;;;589.20;2432.00;;;;;;5071914;28;20046;-78
2023/07/30 02:28:16;;;;;;;20.55;15.13;;;589.10;2432.00;;;;;;5071812;28;20111;-73
2023/07/30 02:30:42;;;;;;;19.55;15.35;;;589.00;2432.00;;;;;;5071759;28;20037;-73
2023/07/30 02:33:08;;;;;;;19.13;14.70;;;589.00;2432.00;;;;;;5074220;28;20020;-76
2023/07/30 02:35:33;;;;;;;20.83;14.75;;;589.10;2432.00;;;;;;5071967;28;20056;-74
2023/07/30 02:37:59;;;;;;;20.42;15.82;;;589.10;2432.00;;;;;;5071159;28;20554;-74
2023/07/30 02:40:25;;;;;;;19.42;15.00;;;589.10;2432.00;;;;;;5071571;28;20475;-76
2023/07/30 02:42:50;;;;;;;21.15;15.82;;;589.10;2432.00;;;;;;5071430;28;20025;-73
2023/07/30 02:45:17;;;;;;;19.73;15.60;;;588.90;2432.00;;;;;;5072039;28;20048;-74
2023/07/30 02:47:43;;;;;;;24.20;15.95;;;588.80;2432.00;;;;;;5071496;28;20017;-74
2023/07/30 02:50:09;;;;;;;20.92;15.38;;;564.10;2432.00;;;;;;5069247;28;20039;-73
2023/07/30 02:52:35;;;;;;;17.10;14.32;;;564.10;2432.00;;;;;;5071545;28;20462;-73
2023/07/30 02:55:00;;;;;;;20.35;15.32;;;564.00;2432.00;;;;;;5071634;28;20033;-73
2023/07/30 02:57:26;;;;;;;18.42;14.13;;;564.00;2432.00;;;;;;5074257;28;20044;-73
2023/07/30 02:59:52;;;;;;;21.02;14.90;;;564.10;2432.00;;;;;;5071537;28;20034;-74
2023/07/30 03:02:17;;;;;;;17.65;14.25;;;564.10;2432.00;;;;;;5070868;28;20462;-74
2023/07/30 03:04:43;;;;;;;20.50;14.63;;;588.80;2432.00;;;;;;5070934;28;20378;-73
2023/07/30 03:07:09;;;;;;;21.25;14.13;;;564.10;2432.00;;;;;;5070761;28;20439;-74
2023/07/30 03:09:35;;;;;;;18.33;13.95;;;564.00;2432.00;;;;;;5071015;28;20481;-75
2023/07/30 03:12:01;;;;;;;15.27;12.07;;;564.00;2432.00;;;;;;5072749;28;20109;-73
2023/07/30 03:14:27;;;;;;;22.30;13.73;;;563.90;2432.00;;;;;;5074328;28;20043;-73
2023/07/30 03:16:52;;;;;;;20.17;13.10;;;563.80;2432.00;;;;;;5075431;28;20021;-73
2023/07/30 03:19:18;;;;;;;16.90;13.23;;;563.80;2432.00;;;;;;5077399;28;20375;-73
2023/07/30 03:21:44;;;;;;;14.75;12.80;;;563.90;2432.00;;;;;;5074095;28;20535;-74
2023/07/30 03:24:09;;;;;;;24.05;14.48;;;563.90;2432.00;;;;;;5074542;28;20046;-74
2023/07/30 03:26:35;;;;;;;16.38;13.07;;;563.60;2432.00;;;;;;5075020;28;20374;-73
2023/07/30 03:29:01;;;;;;;16.17;14.47;;;563.50;2432.00;;;;;;5073869;28;20024;-74
2023/07/30 03:31:28;;;;;;;21.35;14.68;;;563.40;2432.00;;;;;;5074169;28;20048;-73
2023/07/30 03:33:54;;;;;;;23.88;15.30;;;563.30;2432.00;;;;;;5073827;28;20473;-74
2023/07/30 03:36:19;;;;;;;23.20;16.02;;;563.30;2432.00;;;;;;5073849;28;20029;-74
2023/07/30 03:38:45;;;;;;;20.38;15.48;;;563.20;2432.00;;;;;;5073898;28;20493;-74
2023/07/30 03:41:11;;;;;;;18.33;15.02;;;563.30;2432.00;;;;;;5074240;28;20031;-76
2023/07/30 03:43:37;;;;;;;16.35;14.13;;;563.20;2432.00;;;;;;5074017;28;20411;-74
2023/07/30 03:46:03;;;;;;;19.83;13.40;;;563.20;2432.00;;;;;;5073733;28;20039;-73
2023/07/30 03:48:29;;;;;;;18.08;14.10;;;563.20;2432.00;;;;;;5074101;28;20025;-78
2023/07/30 03:50:55;;;;;;;15.68;13.50;;;563.50;2432.00;;;;;;5073758;28;20127;-74
2023/07/30 03:53:22;;;;;;;18.25;13.73;;;563.50;2432.00;;;;;;5073734;28;20017;-73
2023/07/30 03:55:47;;;;;;;20.73;12.90;;;563.40;2432.00;;;;;;5073322;28;20020;-75
2023/07/30 03:58:13;;;;;;;19.20;13.35;;;563.30;2432.00;;;;;;5073817;28;20092;-73
2023/07/30 04:00:39;;;;;;;17.75;13.38;;;563.30;2432.00;;;;;;5073904;28;20024;-74
2023/07/30 04:03:05;;;;;;;16.48;13.38;;;563.30;2432.00;;;;;;5073540;28;20070;-73
2023/07/30 04:05:31;;;;;;;15.77;13.50;;;563.60;2432.00;;;;;;5073875;28;20017;-72
2023/07/30 04:07:57;;;;;;;18.27;12.95;;;563.60;2432.00;;;;;;5073397;28;20048;-74
2023/07/30 04:10:23;;;;;;;17.10;13.50;;;563.60;2432.00;;;;;;5073321;28;20482;-74
2023/07/30 04:12:49;;;;;;;16.17;12.32;;;563.80;2432.00;;;;;;5072398;28;20028;-74
2023/07/30 04:15:15;;;;;;;18.25;14.30;;;563.90;2432.00;;;;;;5078227;28;20021;-73
2023/07/30 04:17:41;;;;;;;18.33;12.63;;;564.10;2432.00;;;;;;5081685;28;20054;-72
2023/07/30 04:20:09;;;;;;;22.30;13.23;;;564.10;2432.00;;;;;;5082544;28;20080;-74
2023/07/30 04:22:36;;;;;;;17.92;13.30;;;564.10;2432.00;;;;;;5085830;28;20106;-73
2023/07/30 04:25:01;;;;;;;18.88;13.50;;;588.80;2432.00;;;;;;5082449;28;20031;-73
2023/07/30 04:27:27;;;;;;;18.42;13.05;;;588.90;2432.00;;;;;;5085130;28;20024;-76
2023/07/30 04:29:53;;;;;;;16.50;13.52;;;588.90;2432.00;;;;;;5071662;28;20036;-73
2023/07/30 04:32:19;;;;;;;18.77;13.43;;;589.00;2432.00;;;;;;5082307;28;20047;-72
2023/07/30 04:34:44;;;;;;;17.10;13.70;;;589.10;2432.00;;;;;;5079405;28;20043;-74
2023/07/30 04:37:10;;;;;;;19.25;12.25;;;589.20;2432.00;;;;;;5081613;28;20247;-73
2023/07/30 04:39:36;;;;;;;14.45;11.20;;;589.30;2432.00;;;;;;5078318;28;20107;-72
2023/07/30 04:42:02;;;;;;;16.27;11.38;;;589.50;2432.00;;;;;;5080647;28;20025;-74
2023/07/30 04:44:28;;;;;;;17.27;11.40;;;589.70;2432.00;;;;;;5082485;28;20488;-73
2023/07/30 04:46:54;;;;;;;11.20;9.70;;;589.70;2432.00;;;;;;5081433;28;20036;-73
2023/07/30 04:49:20;;;;;;;14.02;8.65;;;614.50;2432.00;;;;;;5078224;28;20024;-73
2023/07/30 04:51:45;;;;;;;15.75;8.60;;;614.70;2432.00;;;;;;5082320;28;20107;-72
2023/07/30 04:54:11;;;;;;;13.50;7.47;;;614.70;2432.00;;;;;;5083374;28;20103;-73
2023/07/30 04:56:37;;;;;;;18.63;8.27;;;614.80;2432.00;;;;;;5085234;28;20025;-72
2023/07/30 04:59:03;;;;;;;11.65;8.30;;;614.80;2432.00;;;;;;5081402;28;20020;-76
2023/07/30 05:01:29;;;;;;;14.93;12.88;;;614.90;2432.00;;;;;;5080558;28;20036;-73
2023/07/30 05:03:55;;;;;;;17.45;13.82;;;614.90;2432.00;;;;;;5077442;28;20028;-74
2023/07/30 05:06:21;;;;;;;21.17;15.23;;;614.90;2432.00;;;;;;5080520;28;20027;-73
2023/07/30 05:08:46;;;;;;;18.50;13.57;;;614.90;2432.00;;;;;;5083139;28;20055;-72
2023/07/30 05:11:12;;;;;;;19.40;12.98;;;614.90;2432.00;;;;;;5076871;28;20028;-71
2023/07/30 05:13:38;;;;;;;20.05;12.52;;;614.80;2432.00;;;;;;5077393;28;20020;-72
2023/07/30 05:16:03;;;;;;;17.13;12.57;;;614.80;2432.00;;;;;;5081670;28;20035;-73
2023/07/30 05:18:29;;;;;;;18.48;11.60;;;614.80;2432.00;;;;;;5080382;28;20024;-71
2023/07/30 05:20:55;;;;;;;17.40;12.38;;;614.80;2432.00;;;;;;5076110;28;20021;-72
2023/07/30 05:23:21;;;;;;;15.63;11.77;;;614.90;2432.00;;;;;;5077850;28;20055;-77
2023/07/30 05:25:47;;;;;;;14.55;11.70;;;614.90;2432.00;;;;;;5074220;28;20056;-74
2023/07/30 05:28:13;;;;;;;18.48;12.85;;;614.90;2432.00;;;;;;5075220;28;20127;-71
2023/07/30 05:30:39;;;;;;;17.75;12.52;;;614.90;2432.00;;;;;;5079781;28;20039;-73
2023/07/30 05:33:05;;;;;;;13.32;11.30;;;615.00;2432.00;;;;;;5087445;28;20028;-71
2023/07/30 05:35:30;;;;;;;12.18;9.93;;;615.20;2432.00;;;;;;5076801;28;20032;-71
2023/07/30 05:37:56;;;;;;;14.02;11.77;;;615.30;2432.00;;;;;;5078679;28;20090;-71
2023/07/30 05:40:22;;;;;;;14.43;11.10;;;615.30;2432.00;;;;;;5082514;28;20036;-75
2023/07/30 05:42:48;;;;;;;16.23;11.40;;;640.00;2432.00;;;;;;5077324;28;20100;-71
2023/07/30 05:45:13;;;;;;;16.02;11.73;;;640.10;2432.00;;;;;;5078489;28;20028;-71
2023/07/30 05:47:39;;;;;;;11.95;10.18;;;640.30;2432.00;;;;;;5078945;28;20081;-72
2023/07/30 05:50:06;;;;;;;13.18;9.93;;;640.40;2432.00;;;;;;5079772;28;20028;-73
2023/07/30 05:52:32;;;;;;;11.02;9.05;;;;;;;;;;5080537;28;20028;-72
2023/07/30 05:54:58;;;;;;;14.00;8.85;;;;;;;;;;5079915;28;20047;-74
2023/07/30 05:57:25;;;;;;;15.27;7.22;;;;;;;;;;5078094;28;20166;-71
2023/07/30 05:59:51;;;;;;;10.27;6.40;;;640.90;2432.00;;;;;;5081569;28;20103;-70
2023/07/30 06:02:16;;;;;;;8.23;6.20;;;640.90;2432.00;;;;;;5078000;28;20060;-72
2023/07/30 06:04:42;;;;;;;8.50;6.43;;;665.80;2432.00;;;;;;5082114;28;20481;-73
2023/07/30 06:07:08;;;;;;;10.85;7.13;;;665.90;2432.00;;;;;;5083140;28;20032;-72
2023/07/30 06:09:33;;;;;;;9.88;6.60;;;665.90;2432.00;;;;;;5079296;28;20058;-71
2023/07/30 06:11:59;;;;;;;10.65;6.45;;;666.00;2432.00;;;;;;5077023;28;20035;-72
2023/07/30 06:14:26;;;;;;;8.85;7.07;;;666.00;2432.00;;;;;;5077790;28;20424;-72
2023/07/30 06:16:52;;;;;;;15.70;7.03;;;666.30;2432.00;;;;;;5082645;28;20110;-72
2023/07/30 06:19:18;;;;;;;11.30;7.20;;;666.40;2432.00;;;;;;5082180;28;20024;-72
2023/07/30 06:21:44;;;;;;;10.82;7.10;;;666.50;2432.00;;;;;;5078550;28;20095;-72
2023/07/30 06:24:09;;;;;;;15.48;6.95;;;691.30;2432.00;;;;;;5079614;28;20120;-70
2023/07/30 06:26:36;;;;;;;10.50;7.85;;;;;;;;;;5072818;28;20020;-72
2023/07/30 06:29:02;;;;;;;14.15;7.53;;;;;;;;;;5075377;28;20025;-76
2023/07/30 06:31:28;;;;;;;15.57;7.30;;;;;;;;;;5078024;28;20040;-73
2023/07/30 06:33:54;;;;;;;8.88;7.10;;;691.90;2432.00;;;;;;5084058;28;20028;-71
2023/07/30 06:36:19;;;;;;;11.38;6.53;;;691.80;2432.00;;;;;;5078946;28;20041;-75
2023/07/30 06:38:45;;;;;;;9.40;6.35;;;692.00;2432.00;;;;;;5079311;28;20483;-71
2023/07/30 06:41:11;;;;;;;9.57;6.90;;;691.90;2432.00;;;;;;5079248;28;20379;-73
2023/07/30 06:43:36;;;;;;;9.90;6.82;;;692.10;2432.00;;;;;;5079969;28;20031;-72
2023/07/30 06:46:02;;;;;;;16.63;7.93;;;716.80;2432.00;;;;;;5080792;28;20078;-71
2023/07/30 06:48:28;;;;;;;9.90;6.95;;;716.90;2432.00;;;;;;5085403;28;20035;-76
2023/07/30 06:50:53;;;;;;;14.45;7.30;;;717.00;2432.00;;;;;;5078325;28;20502;-72
2023/07/30 06:53:19;;;;;;;13.77;6.70;;;717.10;2432.00;;;;;;5081810;28;20025;-71
2023/07/30 06:55:45;;;;;;;10.63;6.75;;;717.20;2432.00;;;;;;5081866;28;20482;-74
2023/07/30 06:58:11;;;;;;;8.98;6.32;;;717.50;2432.00;;;;;;5088329;28;20024;-71
2023/07/30 07:00:37;;;;;;;14.27;7.30;;;717.30;2432.00;;;;;;5086950;28;20382;-72
2023/07/30 07:03:03;;;;;;;10.25;6.10;;;717.50;2432.00;;;;;;5093683;28;20043;-73
2023/07/30 07:05:29;;;;;;;11.18;5.80;;;717.60;2432.00;;;;;;5081579;28;20091;-71
2023/07/30 07:07:55;;;;;;;10.68;5.88;;;717.70;2432.00;;;;;;5077438;28;20033;-71
2023/07/30 07:10:21;;;;;;;12.57;6.50;;;742.40;2432.00;;;;;;5081431;28;20102;-72
2023/07/30 07:12:47;;;;;;;13.00;6.05;;;742.60;2432.00;;;;;;5080512;28;20032;-71
2023/07/30 07:15:13;;;;;;;9.18;6.00;;;742.60;2432.00;;;;;;5083364;28;20098;-71
2023/07/30 07:17:39;;;;;;;12.70;7.20;;;742.80;2432.00;;;;;;5085267;28;20028;-71
2023/07/30 07:20:07;;;;;;;9.43;6.50;;;743.00;2432.00;;;;;;5069167;28;20033;-71
2023/07/30 07:22:33;;;;;;;8.38;6.40;;;742.80;2432.00;;;;;;5081268;28;20546;-73
2023/07/30 07:24:59;;;;;;;9.57;6.95;;;743.00;2432.00;;;;;;5083693;28;20032;-71
2023/07/30 07:27:25;;;;;;;7.97;5.53;;;743.10;2432.00;;;;;;5082920;28;20024;-73
2023/07/30 07:29:52;;;;;;;9.02;5.30;;;768.00;2329.60;;;;;;5084667;28;20029;-71
2023/07/30 07:32:18;;;;;;;8.20;5.63;;;768.10;2252.80;;;;;;5085741;28;20087;-71
2023/07/30 07:34:48;;;;;;;9.98;5.85;;;768.10;2201.60;;;;;;5086544;28;20146;-71
2023/07/30 07:37:15;;;;;;;8.02;5.32;;;768.20;2227.20;;;;;;5085791;28;20092;-71
2023/07/30 07:39:41;;;;;;;7.13;5.25;;;768.10;2227.20;;;;;;5081065;28;20090;-72
2023/07/30 07:42:07;;;;;;;8.88;6.40;;;768.30;2201.60;;;;;;5080129;28;20074;-71
2023/07/30 07:44:33;;;;;;;8.65;5.15;;;768.50;2124.80;;;;;;5080750;28;20025;-72
2023/07/30 07:46:58;;;;;;;5.78;4.95;;;768.60;2073.60;;;;;;5085089;28;20032;-72
2023/07/30 07:49:24;;;;;;;7.55;5.22;;;768.70;2073.60;;;;;;5079902;28;20099;-71
2023/07/30 07:51:50;;;;;;;7.68;4.90;;;768.90;2048.00;;;;;;5080740;28;20032;-72
2023/07/30 07:54:16;;;;;;;6.57;4.18;;;793.60;2048.00;;;;;;5081292;28;20059;-75
2023/07/30 07:56:41;;;;;;;7.85;5.10;;;793.70;2048.00;;;;;;5077684;28;20016;-75
2023/07/30 07:59:07;;;;;;;14.02;5.20;;;794.00;1971.20;;;;;;5083135;28;20020;-73
2023/07/30 08:01:33;;;;;;;12.45;4.72;;;794.10;1996.80;;;;;;5083166;28;20036;-71
2023/07/30 08:03:58;;;;;;;6.97;4.65;;;794.20;1996.80;;;;;;5087556;28;20040;-72
2023/07/30 08:06:24;;;;;;;6.90;4.65;;;794.50;1894.40;;;;;;5089364;28;20050;-73
2023/07/30 08:08:50;;;;;;;5.97;4.60;;;794.50;1894.40;;;;;;5083288;28;20032;-73
2023/07/30 08:11:16;;;;;;;9.93;4.25;;;819.60;1868.80;;;;;;5077776;28;20040;-72
2023/07/30 08:13:41;;;;;;;4.95;4.07;;;819.40;1817.60;;;;;;5085408;28;20060;-73
2023/07/30 08:16:07;;;;;;;7.25;4.28;;;819.70;1817.60;;;;;;5077041;28;20382;-72
2023/07/30 08:18:33;;;;;;;8.70;3.90;;;820.00;1792.00;;;;;;5082012;28;20398;-72
2023/07/30 08:21:00;;;;;;;6.65;4.15;;;820.00;1715.20;;;;;;5079209;28;20020;-74
2023/07/30 08:23:26;;;;;;;7.07;3.53;;;820.10;1689.60;;;;;;5082130;28;20035;-72
2023/07/30 08:25:52;;;;;;;6.60;4.07;;;820.10;1715.20;;;;;;5076900;28;20032;-72
2023/07/30 08:28:18;;;;;;;11.55;4.15;;;844.90;1715.20;;;;;;5081619;28;20032;-72
2023/07/30 08:30:44;;;;;;;4.55;3.28;;;;;;;;;;5083477;28;20195;-72
2023/07/30 08:33:10;;;;;;;8.23;3.90;;;;;;;;;;5084221;28;20095;-72
2023/07/30 08:35:36;;;;;;;6.95;4.15;;;;;;;;;;5076548;28;20058;-75
2023/07/30 08:38:02;;;;;;;7.13;3.83;;;845.40;1587.20;;;;;;5078161;28;20097;-75
2023/07/30 08:40:27;;;;;;;6.38;4.20;;;845.40;1561.60;;;;;;5075561;28;20040;-73
2023/07/30 08:42:54;;;;;;;8.27;3.90;;;845.30;1561.60;;;;;;5084976;28;20020;-74
2023/07/30 08:45:20;;;;;;;6.90;4.28;;;845.20;1561.60;;;;;;5082233;28;20021;-72
2023/07/30 08:47:47;;;;;;;4.65;3.65;;;845.20;1587.20;;;;;;5088264;28;20036;-73
2023/07/30 08:50:13;;;;;;;6.13;3.63;;;845.00;1612.80;;;;;;5079196;28;20117;-72
2023/07/30 08:52:39;;;;;;;8.05;4.47;;;845.20;1587.20;;;;;;5085882;28;20024;-72
2023/07/30 08:55:05;;;;;;;7.22;4.40;;;845.50;1561.60;;;;;;5081834;28;20024;-72
2023/07/30 08:57:32;;;;;;;5.05;3.85;;;845.70;1587.20;;;;;;5082689;28;20106;-72
2023/07/30 09:00:05;;;;;;;8.18;4.22;;;845.60;1612.80;;;;;;5075019;28;20513;-72
2023/07/30 09:02:54;;;;;;;6.30;4.15;;;845.70;1561.60;;;;;;5075178;28;20744;-73
2023/07/30 09:05:21;;;;;;;8.45;4.03;;;870.50;1536.00;;;;;;5077635;28;20032;-73
2023/07/30 09:07:46;;;;;;;7.00;3.70;;;870.50;1510.40;;;;;;5079373;28;20064;-74
2023/07/30 09:10:14;;;;;;;17.90;4.55;;;870.70;1510.40;;;;;;5080431;28;20517;-73
2023/07/30 09:12:40;;;;;;;9.90;4.50;;;;;;;;;;5076464;28;20047;-73
2023/07/30 09:15:06;;;;;;;47.25;6.70;;;;;;;;;;5079812;28;20447;-73
2023/07/30 09:17:33;;;;;;;8.90;4.07;;;;;;;;;;5082351;28;20024;-73
2023/07/30 09:20:03;;;;;;;8.32;4.20;;;;;;;;;;5080884;28;20032;-72
2023/07/30 09:22:33;;;;;;;9.90;3.90;;;;;;;;;;5080849;28;20024;-72
2023/07/30 09:25:01;;;;;;;6.00;4.10;;;845.50;1510.40;;;;;;5076232;28;20044;-73
2023/07/30 09:27:27;;;;;;;5.72;3.33;;;845.40;1561.60;;;;;;5078518;28;20033;-72
2023/07/30 09:29:54;;;;;;;5.93;3.85;;;845.70;1510.40;;;;;;5080709;28;20024;-72
2023/07/30 09:32:25;;;;;;;11.82;3.95;;;870.50;1484.80;;;;;;5083331;28;20024;-74
2023/07/30 09:34:50;;;;;;;6.30;3.60;;;870.80;1484.80;;;;;;5077422;28;20040;-74
2023/07/30 09:37:17;;;;;;;6.07;3.85;;;871.00;1433.60;;;;;;5078296;28;20052;-72
2023/07/30 09:39:43;;;;;;;5.13;3.78;;;871.00;1433.60;;;;;;5080146;28;20035;-74
2023/07/30 09:42:09;;;;;;;8.27;4.10;;;871.00;1408.00;;;;;;5080371;28;20025;-74
2023/07/30 09:44:38;;;;;;;8.77;3.67;;;870.70;1408.00;;;;;;5084171;28;20032;-75
2023/07/30 09:47:05;;;;;;;6.75;3.53;;;870.70;1433.60;;;;;;5085285;28;20021;-74
2023/07/30 09:49:31;;;;;;;3.92;3.17;;;871.10;1433.60;;;;;;5085299;28;20073;-74
2023/07/30 09:51:58;;;;;;;6.07;3.67;;;896.20;1433.60;;;;;;5078381;28;20027;-73
2023/07/30 09:54:24;;;;;;;5.80;3.80;;;871.30;1433.60;;;;;;5076176;28;20020;-73
2023/07/30 09:56:49;;;;;;;7.43;4.00;;;871.00;1433.60;;;;;;5082779;28;20046;-74
2023/07/30 09:59:15;;;;;;;6.25;4.07;;;871.30;1408.00;;;;;;5077829;28;20067;-74
2023/07/30 10:01:55;;;;;;;7.28;4.25;;;896.10;1408.00;;;;;;5073744;28;20062;-74
2023/07/30 10:04:21;;;;;;;7.55;3.33;;;896.10;1433.60;;;;;;5081377;28;20355;-75
2023/07/30 10:06:56;;;;;;;8.60;4.40;;;896.50;1382.40;;;;;;5086062;28;20476;-72
2023/07/30 10:09:24;;;;;;;7.47;4.13;;;871.30;1356.80;;;;;;5078171;28;20032;-73
2023/07/30 10:11:53;;;;;;;6.60;3.50;;;896.10;1356.80;;;;;;5082439;28;20044;-73
2023/07/30 10:14:23;;;;;;;9.02;3.85;;;896.00;1408.00;;;;;;5078935;28;20131;-72
2023/07/30 10:17:00;;;;;;;6.55;4.38;;;871.10;1382.40;;;;;;5081259;28;20098;-72
2023/07/30 10:19:26;;;;;;;8.80;3.80;;;871.10;1408.00;;;;;;5076287;28;20048;-72
2023/07/30 10:22:21;;;;;;;7.68;3.97;;;870.90;1459.20;;;;;;5086693;28;20029;-73
2023/07/30 10:25:07;;;;;;;5.93;3.75;;;870.90;1408.00;;;;;;5078808;28;20071;-73
2023/07/30 10:27:43;;;;;;;7.63;3.67;;;870.90;1408.00;;;;;;5083466;28;20060;-71
2023/07/30 10:30:14;;;;;;;6.30;3.40;;;870.80;1433.60;;;;;;5072916;28;20498;-71
2023/07/30 10:32:41;;;;;;;6.07;3.33;;;870.70;1408.00;;;;;;5083472;28;20024;-71
2023/07/30 10:35:07;;;;;;;8.35;4.32;;;870.90;1356.80;;;;;;5080441;28;20026;-70
2023/07/30 10:37:33;;;;;;;6.05;3.30;;;871.00;1408.00;;;;;;5087540;28;20052;-69
2023/07/30 10:39:59;;;;;;;7.28;3.65;;;896.00;1356.80;;;;;;5083071;28;20428;-70
2023/07/30 10:42:34;;;;;;;7.13;3.90;;;896.00;1331.20;;;;;;5084088;28;20025;-70
2023/07/30 10:44:59;;;;;;;6.88;3.97;;;896.30;1331.20;;;;;;5088543;28;20024;-71
2023/07/30 10:47:27;;;;;;;5.75;3.15;;;896.50;1305.60;;;;;;5079091;28;20086;-71
2023/07/30 10:49:56;;;;;;;7.78;3.60;;;896.30;1305.60;;;;;;5081377;28;20025;-71
2023/07/30 10:52:25;;;;;;;5.72;3.47;;;896.10;1356.80;;;;;;5087720;28;20097;-72
2023/07/30 10:55:00;;;;;;;5.00;3.20;;;896.30;1305.60;;;;;;5081914;28;20028;-71
2023/07/30 10:57:31;;;;;;;6.72;3.95;;;896.50;1280.00;;;;;;5081764;28;20060;-71
2023/07/30 10:59:59;;;;;;;7.53;3.78;;;896.50;1280.00;;;;;;5079324;28;20021;-71
2023/07/30 11:02:24;;;;;;;7.68;3.50;;;896.00;1305.60;;;;;;5081456;28;20028;-71
2023/07/30 11:04:51;;;;;;;4.88;3.63;;;871.10;1356.80;;;;;;5083811;28;20032;-70
2023/07/30 11:07:19;;;;;;;6.35;3.55;;;870.90;1382.40;;;;;;5084158;28;20035;-70
2023/07/30 11:09:44;;;;;;;4.70;3.50;;;871.10;1382.40;;;;;;5082162;28;20043;-71
2023/07/30 11:12:10;;;;;;;6.35;3.70;;;871.30;1382.40;;;;;;5077069;28;20032;-76
2023/07/30 11:14:36;;;;;;;5.90;3.80;;;896.10;1356.80;;;;;;5080843;28;20029;-71
2023/07/30 11:17:02;;;;;;;6.15;3.80;;;896.20;1356.80;;;;;;5085121;28;20111;-72
2023/07/30 11:19:29;;;;;;;6.72;3.90;;;896.10;1331.20;;;;;;5081503;28;20490;-72
2023/07/30 11:21:57;;;;;;;5.30;4.03;;;871.30;1356.80;;;;;;5084800;28;20020;-72
2023/07/30 11:24:33;;;;;;;5.85;4.03;;;871.30;1331.20;;;;;;5072579;28;20055;-71
2023/07/30 11:27:00;;;;;;;6.93;3.95;;;871.00;1356.80;;;;;;5076765;28;20060;-71
2023/07/30 11:29:27;;;;;;;7.35;3.75;;;896.00;1356.80;;;;;;5078275;28;20138;-70
2023/07/30 11:31:56;;;;;;;6.25;3.78;;;896.20;1305.60;;;;;;5084034;28;20032;-71
2023/07/30 11:34:22;;;;;;;6.68;3.75;;;896.30;1305.60;;;;;;5085529;28;20048;-70
2023/07/30 11:36:49;;;;;;;7.68;4.25;;;896.80;1280.00;;;;;;5079839;28;20052;-70
2023/07/30 11:39:15;;;;;;;8.93;3.70;;;896.30;1305.60;;;;;;5081603;28;20048;-72
2023/07/30 11:41:41;;;;;;;5.78;3.75;;;896.80;1254.40;;;;;;5084558;28;20485;-70
2023/07/30 11:44:07;;;;;;;7.05;4.03;;;896.90;1228.80;;;;;;5080817;28;20093;-71
2023/07/30 11:46:33;;;;;;;5.57;3.53;;;921.70;1280.00;;;;;;5084444;28;20423;-70
2023/07/30 11:49:13;;;;;;;8.02;3.60;;;896.90;1254.40;;;;;;5087585;28;20500;-72
2023/07/30 11:51:39;;;;;;;5.60;3.90;;;921.70;1280.00;;;;;;5076383;28;20029;-71
2023/07/30 11:54:05;;;;;;;5.70;3.80;;;922.00;1305.60;;;;;;5085070;28;20032;-71
2023/07/30 11:56:33;;;;;;;7.75;3.72;;;922.00;1280.00;;;;;;5085398;28;20148;-73
2023/07/30 11:59:20;;;;;;;11.98;3.80;;;921.80;1331.20;;;;;;5082133;28;20063;-72
2023/07/30 12:01:46;;;;;;;7.65;4.32;;;896.70;1305.60;;;;;;5080491;28;20493;-74
2023/07/30 12:04:12;;;;;;;6.65;3.80;;;896.50;1305.60;;;;;;5076792;28;20094;-72
2023/07/30 12:06:39;;;;;;;6.43;4.18;;;896.00;1331.20;;;;;;5078650;28;20101;-71
2023/07/30 12:09:34;;;;;;;6.57;4.82;;;896.20;1305.60;;;;;;5078987;28;20104;-70
2023/07/30 12:12:01;;;;;;;7.50;3.42;;;896.00;1331.20;;;;;;5073887;28;20079;-70